sensor_id;sensor_type;location;lat;lon;timestamp;pressure;altitude;pressure_sealevel;temperature;humidity
80382;BME280;69692;55.820;37.490;2023-07-20T00:01:44;98375.59;;;14.08;78.25
80382;BME280;69692;55.820;37.490;2023-07-20T00:04:11;98372.13;;;14.02;79.21
80382;BME280;69692;55.820;37.490;2023-07-20T00:06:37;98375.94;;;14.01;78.63
80382;BME280;69692;55.820;37.490;2023-07-20T00:09:09;98369.94;;;14.04;78.68
80382;BME280;69692;55.820;37.490;2023-07-20T00:11:39;98381.34;;;14.01;78.51
80382;BME280;69692;55.820;37.490;2023-07-20T00:14:06;98389.75;;;13.99;78.65
80382;BME280;69692;55.820;37.490;2023-07-20T00:16:32;98379.97;;;13.98;78.36
80382;BME280;69692;55.820;37.490;2023-07-20T00:18:58;98374.56;;;13.98;78.91
80382;BME280;69692;55.820;37.490;2023-07-20T00:21:25;98377.84;;;13.95;78.67
80382;BME280;69692;55.820;37.490;2023-07-20T00:23:50;98384.63;;;13.93;78.74
80382;BME280;69692;55.820;37.490;2023-07-20T00:26:16;98386.25;;;13.94;78.75
80382;BME280;69692;55.820;37.490;2023-07-20T00:28:43;98377.63;;;13.92;78.61
80382;BME280;69692;55.820;37.490;2023-07-20T00:31:09;98377.16;;;13.85;79.10
80382;BME280;69692;55.820;37.490;2023-07-20T00:33:36;98383.09;;;13.82;78.99
80382;BME280;69692;55.820;37.490;2023-07-20T00:36:02;98384.47;;;13.84;78.90
80382;BME280;69692;55.820;37.490;2023-07-20T00:38:28;98386.94;;;13.76;78.97
80382;BME280;69692;55.820;37.490;2023-07-20T00:40:54;98384.25;;;13.76;79.27
80382;BME280;69692;55.820;37.490;2023-07-20T00:43:20;98385.63;;;13.73;79.37
80382;BME280;69692;55.820;37.490;2023-07-20T00:45:46;98382.09;;;13.72;79.55
80382;BME280;69692;55.820;37.490;2023-07-20T00:48:13;98382.91;;;13.73;79.63
80382;BME280;69692;55.820;37.490;2023-07-20T00:50:40;98393.19;;;13.71;79.24
80382;BME280;69692;55.820;37.490;2023-07-20T00:53:08;98390.22;;;13.67;79.66
80382;BME280;69692;55.820;37.490;2023-07-20T00:55:35;98395.13;;;13.65;79.40
80382;BME280;69692;55.820;37.490;2023-07-20T00:58:01;98396.72;;;13.66;79.42
80382;BME280;69692;55.820;37.490;2023-07-20T01:00:27;98397.56;;;13.62;79.47
80382;BME280;69692;55.820;37.490;2023-07-20T01:02:54;98397.56;;;13.62;79.52
80382;BME280;69692;55.820;37.490;2023-07-20T01:05:21;98398.91;;;13.64;79.46
80382;BME280;69692;55.820;37.490;2023-07-20T01:08:15;98391.09;;;13.63;79.64
80382;BME280;69692;55.820;37.490;2023-07-20T01:10:52;98398.66;;;13.61;79.57
80382;BME280;69692;55.820;37.490;2023-07-20T01:13:21;98397.88;;;13.60;79.62
80382;BME280;69692;55.820;37.490;2023-07-20T01:15:56;98395.44;;;13.59;79.82
80382;BME280;69692;55.820;37.490;2023-07-20T01:18:22;98392.75;;;13.59;79.58
80382;BME280;69692;55.820;37.490;2023-07-20T01:20:48;98397.34;;;13.58;79.62
80382;BME280;69692;55.820;37.490;2023-07-20T01:31:27;98394.88;;;13.62;78.84
80382;BME280;69692;55.820;37.490;2023-07-20T01:33:58;98400.28;;;13.62;79.28
80382;BME280;69692;55.820;37.490;2023-07-20T01:36:31;98396.25;;;13.59;79.34
80382;BME280;69692;55.820;37.490;2023-07-20T01:38:59;98410.84;;;13.58;79.37
80382;BME280;69692;55.820;37.490;2023-07-20T01:41:25;98400.84;;;13.59;79.37
80382;BME280;69692;55.820;37.490;2023-07-20T01:43:51;98401.38;;;13.61;79.25
80382;BME280;69692;55.820;37.490;2023-07-20T01:46:16;98407.88;;;13.60;79.24
80382;BME280;69692;55.820;37.490;2023-07-20T01:48:42;98405.97;;;13.60;79.34
80382;BME280;69692;55.820;37.490;2023-07-20T01:51:08;98407.59;;;13.61;79.39
80382;BME280;69692;55.820;37.490;2023-07-20T01:53:34;98407.59;;;13.61;79.27
80382;BME280;69692;55.820;37.490;2023-07-20T01:56:00;98400.00;;;13.63;79.18
80382;BME280;69692;55.820;37.490;2023-07-20T01:58:26;98400.28;;;13.62;79.31
80382;BME280;69692;55.820;37.490;2023-07-20T02:00:52;98391.66;;;13.60;79.30
80382;BME280;69692;55.820;37.490;2023-07-20T02:03:19;98390.56;;;13.61;79.61
80382;BME280;69692;55.820;37.490;2023-07-20T02:05:47;98396.81;;;13.56;79.98
80382;BME280;69692;55.820;37.490;2023-07-20T02:08:13;98389.22;;;13.58;79.67
80382;BME280;69692;55.820;37.490;2023-07-20T02:10:39;98387.63;;;13.57;79.46
80382;BME280;69692;55.820;37.490;2023-07-20T02:13:05;98395.41;;;13.64;79.42
80382;BME280;69692;55.820;37.490;2023-07-20T02:15:32;98390.28;;;13.62;79.50
80382;BME280;69692;55.820;37.490;2023-07-20T02:17:58;98395.97;;;13.61;79.61
80382;BME280;69692;55.820;37.490;2023-07-20T02:20:23;98395.69;;;13.62;79.94
80382;BME280;69692;55.820;37.490;2023-07-20T02:22:49;98398.38;;;13.62;79.40
80382;BME280;69692;55.820;37.490;2023-07-20T02:25:15;98400.28;;;13.62;79.67
80382;BME280;69692;55.820;37.490;2023-07-20T02:27:41;98399.19;;;13.63;79.68
80382;BME280;69692;55.820;37.490;2023-07-20T02:30:08;98402.22;;;13.56;79.79
80382;BME280;69692;55.820;37.490;2023-07-20T02:32:36;98413.28;;;13.60;79.72
80382;BME280;69692;55.820;37.490;2023-07-20T02:35:03;98407.34;;;13.58;79.77
80382;BME280;69692;55.820;37.490;2023-07-20T02:37:31;98402.19;;;13.61;79.68
80382;BME280;69692;55.820;37.490;2023-07-20T02:39:57;98409.75;;;13.59;79.76
80382;BME280;69692;55.820;37.490;2023-07-20T02:42:23;98411.66;;;13.59;79.87
80382;BME280;69692;55.820;37.490;2023-07-20T02:44:52;98404.13;;;13.56;79.79
80382;BME280;69692;55.820;37.490;2023-07-20T02:47:18;98413.00;;;13.61;79.55
80382;BME280;69692;55.820;37.490;2023-07-20T02:49:44;98417.34;;;13.57;79.69
80382;BME280;69692;55.820;37.490;2023-07-20T02:52:09;98420.56;;;13.59;79.52
80382;BME280;69692;55.820;37.490;2023-07-20T02:54:35;98419.78;;;13.59;79.73
80382;BME280;69692;55.820;37.490;2023-07-20T02:57:01;98425.13;;;13.64;79.58
80382;BME280;69692;55.820;37.490;2023-07-20T02:59:27;98425.13;;;13.64;79.23
80382;BME280;69692;55.820;37.490;2023-07-20T03:01:53;98427.81;;;13.69;79.45
80382;BME280;69692;55.820;37.490;2023-07-20T03:04:19;98426.72;;;13.70;79.18
80382;BME280;69692;55.820;37.490;2023-07-20T03:06:45;98427.78;;;13.74;79.43
80382;BME280;69692;55.820;37.490;2023-07-20T03:09:11;98430.75;;;13.72;79.53
80382;BME280;69692;55.820;37.490;2023-07-20T03:11:37;98425.88;;;13.75;79.28
80382;BME280;69692;55.820;37.490;2023-07-20T03:14:03;98429.66;;;13.73;79.53
80382;BME280;69692;55.820;37.490;2023-07-20T03:16:29;98433.94;;;13.80;79.24
80382;BME280;69692;55.820;37.490;2023-07-20T03:19:00;98433.13;;;13.79;79.39
80382;BME280;69692;55.820;37.490;2023-07-20T03:21:26;98424.19;;;13.84;79.13
80382;BME280;69692;55.820;37.490;2023-07-20T03:23:52;98435.25;;;13.87;79.27
80382;BME280;69692;55.820;37.490;2023-07-20T03:26:18;98445.22;;;13.92;78.92
80382;BME280;69692;55.820;37.490;2023-07-20T03:28:43;98444.66;;;13.95;78.67
80382;BME280;69692;55.820;37.490;2023-07-20T03:31:10;98443.53;;;14.01;78.63
80382;BME280;69692;55.820;37.490;2023-07-20T03:33:38;98435.91;;;14.08;78.53
80382;BME280;69692;55.820;37.490;2023-07-20T03:36:04;98440.72;;;14.16;78.51
80382;BME280;69692;55.820;37.490;2023-07-20T03:38:30;98444.41;;;14.25;78.22
80382;BME280;69692;55.820;37.490;2023-07-20T03:40:58;98435.16;;;14.31;77.55
80382;BME280;69692;55.820;37.490;2023-07-20T03:43:25;98436.22;;;14.36;77.32
80382;BME280;69692;55.820;37.490;2023-07-20T03:45:52;98433.97;;;14.43;77.28
80382;BME280;69692;55.820;37.490;2023-07-20T03:48:20;98435.81;;;14.52;76.93
80382;BME280;69692;55.820;37.490;2023-07-20T03:50:52;98439.81;;;14.60;76.83
80382;BME280;69692;55.820;37.490;2023-07-20T03:53:18;98435.66;;;14.68;76.18
80382;BME280;69692;55.820;37.490;2023-07-20T03:55:45;98441.00;;;14.73;76.14
80382;BME280;69692;55.820;37.490;2023-07-20T03:58:12;98439.88;;;14.79;75.79
80382;BME280;69692;55.820;37.490;2023-07-20T04:00:39;98446.53;;;14.86;75.70
80382;BME280;69692;55.820;37.490;2023-07-20T04:03:06;98441.31;;;14.95;75.57
80382;BME280;69692;55.820;37.490;2023-07-20T04:05:32;98457.28;;;14.97;75.55
80382;BME280;69692;55.820;37.490;2023-07-20T04:07:58;98441.25;;;15.00;75.40
80382;BME280;69692;55.820;37.490;2023-07-20T04:10:24;98449.84;;;15.07;74.91
80382;BME280;69692;55.820;37.490;2023-07-20T04:12:52;98453.00;;;15.14;74.74
80382;BME280;69692;55.820;37.490;2023-07-20T04:15:18;98446.66;;;15.24;74.55
80382;BME280;69692;55.820;37.490;2023-07-20T04:17:47;98440.88;;;15.31;74.36
80382;BME280;69692;55.820;37.490;2023-07-20T04:20:13;98442.34;;;15.42;74.27
80382;BME280;69692;55.820;37.490;2023-07-20T04:22:39;98448.53;;;15.47;73.56
80382;BME280;69692;55.820;37.490;2023-07-20T04:25:08;98443.03;;;15.52;72.87
80382;BME280;69692;55.820;37.490;2023-07-20T04:27:34;98445.16;;;15.56;72.91
80382;BME280;69692;55.820;37.490;2023-07-20T04:30:00;98447.56;;;15.57;72.63
80382;BME280;69692;55.820;37.490;2023-07-20T04:32:26;98438.63;;;15.57;73.71
80382;BME280;69692;55.820;37.490;2023-07-20T04:34:52;98442.94;;;15.63;72.10
80382;BME280;69692;55.820;37.490;2023-07-20T04:37:19;98452.13;;;15.62;72.47
80382;BME280;69692;55.820;37.490;2023-07-20T04:39:46;98450.19;;;15.67;72.61
80382;BME280;69692;55.820;37.490;2023-07-20T04:42:12;98441.97;;;15.72;72.83
80382;BME280;69692;55.820;37.490;2023-07-20T04:44:38;98452.66;;;15.83;72.23
80382;BME280;69692;55.820;37.490;2023-07-20T04:47:05;98443.84;;;15.91;72.24
80382;BME280;69692;55.820;37.490;2023-07-20T04:49:34;98442.91;;;16.00;72.26
80382;BME280;69692;55.820;37.490;2023-07-20T04:52:01;98452.00;;;16.09;72.15
80382;BME280;69692;55.820;37.490;2023-07-20T04:54:28;98450.28;;;16.14;71.97
80382;BME280;69692;55.820;37.490;2023-07-20T04:56:54;98454.47;;;16.25;72.66
80382;BME280;69692;55.820;37.490;2023-07-20T04:59:21;98448.13;;;16.29;71.98
80382;BME280;69692;55.820;37.490;2023-07-20T05:01:47;98452.66;;;16.34;71.97
80382;BME280;69692;55.820;37.490;2023-07-20T05:04:14;98452.28;;;16.40;71.91
80382;BME280;69692;55.820;37.490;2023-07-20T05:06:40;98460.84;;;16.48;70.93
80382;BME280;69692;55.820;37.490;2023-07-20T05:09:06;98456.22;;;16.48;70.32
80382;BME280;69692;55.820;37.490;2023-07-20T05:11:34;98446.66;;;16.51;70.04
80382;BME280;69692;55.820;37.490;2023-07-20T05:14:01;98455.84;;;16.55;69.94
80382;BME280;69692;55.820;37.490;2023-07-20T05:16:28;98454.94;;;16.59;69.78
80382;BME280;69692;55.820;37.490;2023-07-20T05:18:58;98460.88;;;16.61;69.66
80382;BME280;69692;55.820;37.490;2023-07-20T05:21:24;98458.38;;;16.65;69.06
80382;BME280;69692;55.820;37.490;2023-07-20T05:23:50;98460.72;;;16.72;69.30
80382;BME280;69692;55.820;37.490;2023-07-20T05:26:17;98465.09;;;16.86;69.71
80382;BME280;69692;55.820;37.490;2023-07-20T05:28:43;98467.31;;;16.98;69.31
80382;BME280;69692;55.820;37.490;2023-07-20T05:31:08;98463.88;;;17.06;68.08
80382;BME280;69692;55.820;37.490;2023-07-20T05:33:34;98458.63;;;17.10;66.76
80382;BME280;69692;55.820;37.490;2023-07-20T05:36:00;98454.72;;;17.16;67.06
80382;BME280;69692;55.820;37.490;2023-07-20T05:38:26;98456.03;;;17.18;67.53
80382;BME280;69692;55.820;37.490;2023-07-20T05:40:52;98463.75;;;17.25;66.54
80382;BME280;69692;55.820;37.490;2023-07-20T05:43:18;98454.09;;;17.33;66.66
80382;BME280;69692;55.820;37.490;2023-07-20T05:45:43;98459.25;;;17.34;66.70
80382;BME280;69692;55.820;37.490;2023-07-20T05:48:10;98464.78;;;17.43;66.75
80382;BME280;69692;55.820;37.490;2023-07-20T05:50:41;98457.44;;;17.43;65.36
80382;BME280;69692;55.820;37.490;2023-07-20T05:53:07;98462.25;;;17.46;65.35
80382;BME280;69692;55.820;37.490;2023-07-20T05:55:32;98454.59;;;17.48;64.69
80382;BME280;69692;55.820;37.490;2023-07-20T05:57:58;98466.09;;;17.45;64.98
80382;BME280;69692;55.820;37.490;2023-07-20T06:00:24;98458.91;;;17.49;64.19
80382;BME280;69692;55.820;37.490;2023-07-20T06:02:55;98459.03;;;17.44;63.73
80382;BME280;69692;55.820;37.490;2023-07-20T06:05:22;98456.19;;;17.49;63.15
80382;BME280;69692;55.820;37.490;2023-07-20T06:07:50;98460.72;;;17.54;63.46
80382;BME280;69692;55.820;37.490;2023-07-20T06:10:16;98464.03;;;17.65;63.86
80382;BME280;69692;55.820;37.490;2023-07-20T06:12:44;98465.56;;;17.71;62.25
80382;BME280;69692;55.820;37.490;2023-07-20T06:15:32;98472.09;;;17.70;61.83
80382;BME280;69692;55.820;37.490;2023-07-20T06:17:58;98460.81;;;17.76;61.85
80382;BME280;69692;55.820;37.490;2023-07-20T06:20:24;98472.69;;;17.80;60.84
80382;BME280;69692;55.820;37.490;2023-07-20T06:22:50;98472.06;;;17.83;60.42
80382;BME280;69692;55.820;37.490;2023-07-20T06:25:17;98469.88;;;17.85;60.61
80382;BME280;69692;55.820;37.490;2023-07-20T06:27:44;98462.91;;;17.79;60.59
80382;BME280;69692;55.820;37.490;2023-07-20T06:30:10;98466.41;;;17.94;61.47
80382;BME280;69692;55.820;37.490;2023-07-20T06:32:36;98465.13;;;17.77;59.95
80382;BME280;69692;55.820;37.490;2023-07-20T06:35:02;98462.56;;;17.95;61.01
80382;BME280;69692;55.820;37.490;2023-07-20T06:37:29;98462.81;;;18.07;60.34
80382;BME280;69692;55.820;37.490;2023-07-20T06:39:55;98458.94;;;18.22;59.69
80382;BME280;69692;55.820;37.490;2023-07-20T06:42:21;98455.34;;;18.35;58.79
80382;BME280;69692;55.820;37.490;2023-07-20T06:44:53;98458.63;;;18.45;58.82
80382;BME280;69692;55.820;37.490;2023-07-20T06:47:19;98458.03;;;18.57;57.64
80382;BME280;69692;55.820;37.490;2023-07-20T06:49:45;98451.66;;;18.62;56.21
80382;BME280;69692;55.820;37.490;2023-07-20T06:52:11;98465.00;;;18.63;56.52
80382;BME280;69692;55.820;37.490;2023-07-20T06:54:36;98460.69;;;18.71;55.79
80382;BME280;69692;55.820;37.490;2023-07-20T06:57:02;98460.28;;;18.77;55.73
80382;BME280;69692;55.820;37.490;2023-07-20T06:59:28;98461.19;;;18.73;55.15
80382;BME280;69692;55.820;37.490;2023-07-20T07:01:54;98460.13;;;18.83;54.14
80382;BME280;69692;55.820;37.490;2023-07-20T07:04:21;98467.22;;;18.92;53.93
80382;BME280;69692;55.820;37.490;2023-07-20T07:06:47;98467.88;;;18.98;52.35
80382;BME280;69692;55.820;37.490;2023-07-20T07:09:14;98467.44;;;19.04;53.04
80382;BME280;69692;55.820;37.490;2023-07-20T07:11:39;98459.75;;;19.06;53.05
80382;BME280;69692;55.820;37.490;2023-07-20T07:14:05;98470.69;;;19.15;52.53
80382;BME280;69692;55.820;37.490;2023-07-20T07:16:31;98476.34;;;19.27;51.80
80382;BME280;69692;55.820;37.490;2023-07-20T07:18:57;98470.59;;;19.38;53.18
80382;BME280;69692;55.820;37.490;2023-07-20T07:21:22;98473.22;;;19.51;52.47
80382;BME280;69692;55.820;37.490;2023-07-20T07:23:48;98472.13;;;19.70;52.32
80382;BME280;69692;55.820;37.490;2023-07-20T07:26:15;98473.09;;;19.74;52.09
80382;BME280;69692;55.820;37.490;2023-07-20T07:28:41;98478.25;;;19.92;52.07
80382;BME280;69692;55.820;37.490;2023-07-20T07:31:07;98470.06;;;20.18;50.47
80382;BME280;69692;55.820;37.490;2023-07-20T07:33:33;98480.66;;;19.85;49.26
80382;BME280;69692;55.820;37.490;2023-07-20T07:36:00;98471.84;;;19.80;49.43
80382;BME280;69692;55.820;37.490;2023-07-20T07:38:25;98469.72;;;19.77;49.90
80382;BME280;69692;55.820;37.490;2023-07-20T07:40:51;98479.56;;;19.95;48.91
80382;BME280;69692;55.820;37.490;2023-07-20T07:43:17;98481.97;;;20.14;48.99
80382;BME280;69692;55.820;37.490;2023-07-20T07:45:43;98479.22;;;20.22;48.93
80382;BME280;69692;55.820;37.490;2023-07-20T07:48:08;98478.72;;;20.38;49.04
80382;BME280;69692;55.820;37.490;2023-07-20T07:50:38;98471.34;;;20.56;47.68
80382;BME280;69692;55.820;37.490;2023-07-20T07:53:07;98479.88;;;20.54;47.91
80382;BME280;69692;55.820;37.490;2023-07-20T07:55:35;98468.91;;;20.71;48.50
80382;BME280;69692;55.820;37.490;2023-07-20T07:58:01;98480.56;;;20.89;47.84
80382;BME280;69692;55.820;37.490;2023-07-20T08:00:27;98476.28;;;20.71;47.71
80382;BME280;69692;55.820;37.490;2023-07-20T08:02:53;98477.06;;;20.80;47.16
80382;BME280;69692;55.820;37.490;2023-07-20T08:05:19;98476.13;;;20.67;47.95
80382;BME280;69692;55.820;37.490;2023-07-20T08:07:45;98485.66;;;20.44;48.55
80382;BME280;69692;55.820;37.490;2023-07-20T08:10:11;98475.69;;;20.39;48.88
80382;BME280;69692;55.820;37.490;2023-07-20T08:12:37;98481.00;;;20.27;49.24
80382;BME280;69692;55.820;37.490;2023-07-20T08:15:03;98479.72;;;20.24;49.23
80382;BME280;69692;55.820;37.490;2023-07-20T08:17:32;98482.75;;;20.32;49.62
80382;BME280;69692;55.820;37.490;2023-07-20T08:19:58;98473.56;;;20.36;49.26
80382;BME280;69692;55.820;37.490;2023-07-20T08:22:24;98482.56;;;20.71;47.84
80382;BME280;69692;55.820;37.490;2023-07-20T08:24:50;98485.97;;;20.68;47.92
80382;BME280;69692;55.820;37.490;2023-07-20T08:27:16;98478.53;;;20.77;47.56
80382;BME280;69692;55.820;37.490;2023-07-20T08:29:42;98488.03;;;20.71;48.35
80382;BME280;69692;55.820;37.490;2023-07-20T08:32:08;98482.56;;;20.63;47.27
80382;BME280;69692;55.820;37.490;2023-07-20T08:34:34;98489.69;;;20.55;47.89
80382;BME280;69692;55.820;37.490;2023-07-20T08:37:00;98502.38;;;20.25;49.39
80382;BME280;69692;55.820;37.490;2023-07-20T08:39:26;98503.97;;;20.35;48.48
80382;BME280;69692;55.820;37.490;2023-07-20T08:41:52;98488.22;;;20.49;49.35
80382;BME280;69692;55.820;37.490;2023-07-20T08:44:18;98499.16;;;20.40;48.48
80382;BME280;69692;55.820;37.490;2023-07-20T08:46:45;98488.88;;;20.29;48.45
80382;BME280;69692;55.820;37.490;2023-07-20T08:49:13;98507.81;;;20.16;50.41
80382;BME280;69692;55.820;37.490;2023-07-20T08:51:42;98497.38;;;19.84;52.43
80382;BME280;69692;55.820;37.490;2023-07-20T08:54:09;98499.63;;;19.33;54.18
80382;BME280;69692;55.820;37.490;2023-07-20T08:56:36;98506.22;;;19.01;56.53
80382;BME280;69692;55.820;37.490;2023-07-20T08:59:03;98501.72;;;18.97;58.93
80382;BME280;69692;55.820;37.490;2023-07-20T09:01:29;98507.56;;;19.13;57.43
80382;BME280;69692;55.820;37.490;2023-07-20T09:03:56;98499.94;;;19.32;57.25
80382;BME280;69692;55.820;37.490;2023-07-20T09:06:22;98498.28;;;19.62;55.86
80382;BME280;69692;55.820;37.490;2023-07-20T09:08:48;98502.66;;;19.72;56.01
80382;BME280;69692;55.820;37.490;2023-07-20T09:11:14;98504.44;;;19.93;56.37
80382;BME280;69692;55.820;37.490;2023-07-20T09:13:40;98497.19;;;19.89;56.23
80382;BME280;69692;55.820;37.490;2023-07-20T09:16:06;98505.56;;;19.84;55.27
80382;BME280;69692;55.820;37.490;2023-07-20T09:18:32;98504.63;;;19.49;55.03
80382;BME280;69692;55.820;37.490;2023-07-20T09:21:06;98513.44;;;19.37;56.47
80382;BME280;69692;55.820;37.490;2023-07-20T09:23:36;98512.75;;;19.23;56.41
80382;BME280;69692;55.820;37.490;2023-07-20T09:26:12;98504.69;;;19.18;56.81
80382;BME280;69692;55.820;37.490;2023-07-20T09:28:47;98511.47;;;19.77;55.25
80382;BME280;69692;55.820;37.490;2023-07-20T09:31:17;98519.66;;;19.69;55.51
80382;BME280;69692;55.820;37.490;2023-07-20T09:33:44;98512.13;;;19.65;55.54
80382;BME280;69692;55.820;37.490;2023-07-20T09:36:10;98514.66;;;19.62;56.09
80382;BME280;69692;55.820;37.490;2023-07-20T09:38:41;98511.44;;;19.60;55.11
80382;BME280;69692;55.820;37.490;2023-07-20T09:41:07;98521.06;;;19.57;55.16
80382;BME280;69692;55.820;37.490;2023-07-20T09:43:34;98527.66;;;19.56;55.13
80382;BME280;69692;55.820;37.490;2023-07-20T09:46:00;98528.94;;;19.59;54.38
80382;BME280;69692;55.820;37.490;2023-07-20T09:48:27;98548.78;;;19.51;54.52
80382;BME280;69692;55.820;37.490;2023-07-20T09:50:53;98539.53;;;19.21;55.85
80382;BME280;69692;55.820;37.490;2023-07-20T09:53:20;98545.03;;;18.98;58.83
80382;BME280;69692;55.820;37.490;2023-07-20T09:55:49;98549.13;;;18.87;61.00
80382;BME280;69692;55.820;37.490;2023-07-20T09:58:16;98550.47;;;18.98;61.35
80382;BME280;69692;55.820;37.490;2023-07-20T10:00:43;98545.63;;;19.57;59.97
80382;BME280;69692;55.820;37.490;2023-07-20T10:03:20;98538.19;;;20.41;57.23
80382;BME280;69692;55.820;37.490;2023-07-20T10:05:58;98533.84;;;20.74;55.36
80382;BME280;69692;55.820;37.490;2023-07-20T10:08:26;98536.06;;;21.45;53.82
80382;BME280;69692;55.820;37.490;2023-07-20T10:10:54;98533.97;;;21.42;51.53
80382;BME280;69692;55.820;37.490;2023-07-20T10:13:26;98524.00;;;20.99;51.92
80382;BME280;69692;55.820;37.490;2023-07-20T10:16:11;98526.03;;;21.58;51.67
80382;BME280;69692;55.820;37.490;2023-07-20T10:21:17;98526.50;;;21.60;51.82
80382;BME280;69692;55.820;37.490;2023-07-20T10:23:43;98522.72;;;20.79;52.95
80382;BME280;69692;55.820;37.490;2023-07-20T10:26:09;98533.03;;;20.65;53.40
80382;BME280;69692;55.820;37.490;2023-07-20T10:28:36;98536.28;;;20.59;53.18
80382;BME280;69692;55.820;37.490;2023-07-20T10:31:03;98528.59;;;20.43;53.05
80382;BME280;69692;55.820;37.490;2023-07-20T10:33:29;98527.91;;;20.38;54.33
80382;BME280;69692;55.820;37.490;2023-07-20T10:35:57;98521.16;;;20.01;55.44
80382;BME280;69692;55.820;37.490;2023-07-20T10:41:16;98530.13;;;19.92;56.29
80382;BME280;69692;55.820;37.490;2023-07-20T10:43:46;98523.56;;;20.28;55.84
80382;BME280;69692;55.820;37.490;2023-07-20T10:46:12;98520.38;;;20.69;53.34
80382;BME280;69692;55.820;37.490;2023-07-20T10:49:03;98516.16;;;21.27;51.26
80382;BME280;69692;55.820;37.490;2023-07-20T10:51:31;98516.50;;;22.14;48.77
80382;BME280;69692;55.820;37.490;2023-07-20T10:54:07;98505.31;;;22.40;47.87
80382;BME280;69692;55.820;37.490;2023-07-20T10:56:33;98519.81;;;22.95;48.03
80382;BME280;69692;55.820;37.490;2023-07-20T10:59:00;98516.16;;;23.03;47.09
80382;BME280;69692;55.820;37.490;2023-07-20T11:01:30;98517.53;;;22.76;48.02
80382;BME280;69692;55.820;37.490;2023-07-20T11:03:58;98521.38;;;22.29;48.90
80382;BME280;69692;55.820;37.490;2023-07-20T11:09:05;98526.50;;;21.60;50.81
80382;BME280;69692;55.820;37.490;2023-07-20T11:11:34;98535.00;;;21.20;52.20
80382;BME280;69692;55.820;37.490;2023-07-20T11:14:06;98543.63;;;20.93;53.19
80382;BME280;69692;55.820;37.490;2023-07-20T11:16:39;98553.16;;;20.61;53.41
80382;BME280;69692;55.820;37.490;2023-07-20T11:19:13;98560.38;;;20.39;52.89
80382;BME280;69692;55.820;37.490;2023-07-20T11:21:41;98560.53;;;20.17;53.13
80382;BME280;69692;55.820;37.490;2023-07-20T11:24:08;98571.59;;;19.94;54.77
80382;BME280;69692;55.820;37.490;2023-07-20T11:26:51;98561.25;;;19.74;56.57
80382;BME280;69692;55.820;37.490;2023-07-20T11:29:19;98558.94;;;19.59;56.63
80382;BME280;69692;55.820;37.490;2023-07-20T11:31:46;98552.94;;;19.48;56.78
80382;BME280;69692;55.820;37.490;2023-07-20T11:34:20;98560.31;;;19.39;57.21
80382;BME280;69692;55.820;37.490;2023-07-20T11:36:50;98555.91;;;19.29;57.78
80382;BME280;69692;55.820;37.490;2023-07-20T11:39:18;98554.78;;;19.22;57.79
80382;BME280;69692;55.820;37.490;2023-07-20T11:41:52;98559.84;;;19.15;58.00
80382;BME280;69692;55.820;37.490;2023-07-20T11:44:21;98566.81;;;19.29;59.05
80382;BME280;69692;55.820;37.490;2023-07-20T11:47:01;98575.59;;;19.18;60.39
80382;BME280;69692;55.820;37.490;2023-07-20T11:49:29;98590.50;;;18.89;62.47
80382;BME280;69692;55.820;37.490;2023-07-20T11:51:56;98574.41;;;18.43;62.13
80382;BME280;69692;55.820;37.490;2023-07-20T11:54:23;98570.78;;;18.11;63.04
80382;BME280;69692;55.820;37.490;2023-07-20T11:56:56;98569.31;;;18.28;62.43
80382;BME280;69692;55.820;37.490;2023-07-20T11:59:22;98570.19;;;18.95;60.07
80382;BME280;69692;55.820;37.490;2023-07-20T12:01:48;98566.28;;;19.50;58.97
80382;BME280;69692;55.820;37.490;2023-07-20T12:04:13;98561.53;;;19.33;56.14
80382;BME280;69692;55.820;37.490;2023-07-20T12:06:39;98567.72;;;19.16;57.02
80382;BME280;69692;55.820;37.490;2023-07-20T12:09:05;98568.19;;;19.10;56.31
80382;BME280;69692;55.820;37.490;2023-07-20T12:11:35;98573.19;;;19.16;57.15
80382;BME280;69692;55.820;37.490;2023-07-20T12:14:02;98564.19;;;19.16;56.92
80382;BME280;69692;55.820;37.490;2023-07-20T12:16:29;98561.19;;;19.26;57.87
80382;BME280;69692;55.820;37.490;2023-07-20T12:19:12;98554.47;;;19.63;57.39
80382;BME280;69692;55.820;37.490;2023-07-20T12:21:39;98560.06;;;20.23;55.02
80382;BME280;69692;55.820;37.490;2023-07-20T12:24:07;98552.84;;;20.62;54.24
80382;BME280;69692;55.820;37.490;2023-07-20T12:26:35;98556.19;;;21.40;51.79
80382;BME280;69692;55.820;37.490;2023-07-20T12:29:01;98559.94;;;21.95;51.47
80382;BME280;69692;55.820;37.490;2023-07-20T12:31:27;98557.66;;;22.06;51.26
80382;BME280;69692;55.820;37.490;2023-07-20T12:33:57;98552.72;;;22.20;50.23
80382;BME280;69692;55.820;37.490;2023-07-20T12:36:23;98543.38;;;21.62;50.57
80382;BME280;69692;55.820;37.490;2023-07-20T12:38:50;98552.03;;;21.72;50.07
80382;BME280;69692;55.820;37.490;2023-07-20T12:41:16;98549.44;;;22.06;49.01
80382;BME280;69692;55.820;37.490;2023-07-20T12:43:44;98537.38;;;21.98;48.38
80382;BME280;69692;55.820;37.490;2023-07-20T12:46:11;98548.41;;;21.60;49.67
80382;BME280;69692;55.820;37.490;2023-07-20T12:48:39;98553.13;;;20.87;50.90
80382;BME280;69692;55.820;37.490;2023-07-20T12:51:08;98542.03;;;20.66;52.14
80382;BME280;69692;55.820;37.490;2023-07-20T12:53:35;98537.56;;;20.52;51.95
80382;BME280;69692;55.820;37.490;2023-07-20T12:56:01;98538.06;;;20.46;52.28
80382;BME280;69692;55.820;37.490;2023-07-20T12:58:27;98538.22;;;20.49;52.59
80382;BME280;69692;55.820;37.490;2023-07-20T13:00:54;98544.81;;;20.57;52.78
80382;BME280;69692;55.820;37.490;2023-07-20T13:03:20;98541.13;;;21.17;52.01
80382;BME280;69692;55.820;37.490;2023-07-20T13:05:46;98548.41;;;21.60;50.53
80382;BME280;69692;55.820;37.490;2023-07-20T13:08:13;98537.44;;;21.89;49.70